sensor_id;sensor_type;location;lat;lon;timestamp;pressure;altitude;pressure_sealevel;temperature;humidity
17525;BME280;40431;52.198;9.902;2023-06-10T00:01:17;100810.38;;;19.02;66.42
17525;BME280;40431;52.198;9.902;2023-06-10T00:03:44;100811.75;;;18.86;66.97
17525;BME280;40431;52.198;9.902;2023-06-10T00:06:10;100815.22;;;18.79;68.17
17525;BME280;40431;52.198;9.902;2023-06-10T00:08:36;100821.19;;;18.84;68.53
17525;BME280;40431;52.198;9.902;2023-06-10T00:11:06;100817.41;;;18.85;69.06
17525;BME280;40431;52.198;9.902;2023-06-10T00:13:32;100821.28;;;18.82;69.97
17525;BME280;40431;52.198;9.902;2023-06-10T00:15:59;100821.59;;;18.79;70.33
17525;BME280;40431;52.198;9.902;2023-06-10T00:18:25;100816.78;;;18.72;70.04
17525;BME280;40431;52.198;9.902;2023-06-10T00:20:52;100815.47;;;18.66;70.97
17525;BME280;40431;52.198;9.902;2023-06-10T00:23:20;100816.03;;;18.60;70.07
17525;BME280;40431;52.198;9.902;2023-06-10T00:25:46;100803.28;;;18.49;69.97
17525;BME280;40431;52.198;9.902;2023-06-10T00:28:14;100813.41;;;18.48;70.82
17525;BME280;40431;52.198;9.902;2023-06-10T00:30:41;100804.41;;;18.46;71.41
17525;BME280;40431;52.198;9.902;2023-06-10T00:33:07;100811.63;;;18.38;70.53
17525;BME280;40431;52.198;9.902;2023-06-10T00:35:33;100810.44;;;18.30;70.28
17525;BME280;40431;52.198;9.902;2023-06-10T00:38:00;100805.63;;;18.23;70.66
17525;BME280;40431;52.198;9.902;2023-06-10T00:40:26;100810.41;;;18.21;71.43
17525;BME280;40431;52.198;9.902;2023-06-10T00:42:52;100807.59;;;18.11;69.70
17525;BME280;40431;52.198;9.902;2023-06-10T00:45:20;100827.03;;;17.98;70.08
17525;BME280;40431;52.198;9.902;2023-06-10T00:47:47;100810.75;;;17.85;70.95
17525;BME280;40431;52.198;9.902;2023-06-10T00:50:13;100816.69;;;17.69;71.26
17525;BME280;40431;52.198;9.902;2023-06-10T00:52:40;100822.94;;;17.71;72.31
17525;BME280;40431;52.198;9.902;2023-06-10T00:55:08;100814.38;;;17.64;71.41
17525;BME280;40431;52.198;9.902;2023-06-10T00:57:36;100822.69;;;17.63;72.40
17525;BME280;40431;52.198;9.902;2023-06-10T01:00:03;100822.47;;;17.66;72.51
17525;BME280;40431;52.198;9.902;2023-06-10T01:02:34;100823.47;;;17.65;72.65
17525;BME280;40431;52.198;9.902;2023-06-10T01:05:01;100823.63;;;17.52;72.24
17525;BME280;40431;52.198;9.902;2023-06-10T01:07:35;100815.06;;;17.45;72.86
17525;BME280;40431;52.198;9.902;2023-06-10T01:10:06;100815.38;;;17.31;73.89
17525;BME280;40431;52.198;9.902;2023-06-10T01:12:40;100810.69;;;17.22;75.02
17525;BME280;40431;52.198;9.902;2023-06-10T01:15:08;100816.44;;;17.18;75.78
17525;BME280;40431;52.198;9.902;2023-06-10T01:17:37;100821.09;;;17.07;76.94
17525;BME280;40431;52.198;9.902;2023-06-10T01:20:17;100822.50;;;16.90;78.62
17525;BME280;40431;52.198;9.902;2023-06-10T01:22:45;100827.44;;;16.84;80.53
17525;BME280;40431;52.198;9.902;2023-06-10T01:25:13;100834.59;;;16.76;81.48
17525;BME280;40431;52.198;9.902;2023-06-10T01:27:40;100832.22;;;16.71;82.28
17525;BME280;40431;52.198;9.902;2023-06-10T01:30:13;100824.75;;;16.62;84.12
17525;BME280;40431;52.198;9.902;2023-06-10T01:32:45;100819.94;;;16.43;86.95
17525;BME280;40431;52.198;9.902;2023-06-10T01:35:13;100827.88;;;16.46;88.12
17525;BME280;40431;52.198;9.902;2023-06-10T01:37:43;100830.13;;;16.52;88.79
17525;BME280;40431;52.198;9.902;2023-06-10T01:40:13;100828.78;;;16.46;89.38
17525;BME280;40431;52.198;9.902;2023-06-10T01:42:40;100830.25;;;16.50;90.36
17525;BME280;40431;52.198;9.902;2023-06-10T01:45:08;100831.75;;;16.55;90.98
17525;BME280;40431;52.198;9.902;2023-06-10T01:47:34;100828.50;;;16.49;90.64
17525;BME280;40431;52.198;9.902;2023-06-10T01:50:01;100841.47;;;16.47;91.10
17525;BME280;40431;52.198;9.902;2023-06-10T01:52:27;100838.44;;;16.62;92.62
17525;BME280;40431;52.198;9.902;2023-06-10T01:54:54;100845.66;;;16.63;91.47
17525;BME280;40431;52.198;9.902;2023-06-10T01:57:21;100853.66;;;16.66;92.02
17525;BME280;40431;52.198;9.902;2023-06-10T01:59:48;100845.03;;;16.59;90.29
17525;BME280;40431;52.198;9.902;2023-06-10T02:02:14;100847.16;;;16.44;90.73
17525;BME280;40431;52.198;9.902;2023-06-10T02:04:40;100847.16;;;16.44;91.54
17525;BME280;40431;52.198;9.902;2023-06-10T02:07:07;100846.94;;;16.47;92.29
17525;BME280;40431;52.198;9.902;2023-06-10T02:09:33;100848.91;;;16.45;91.57
17525;BME280;40431;52.198;9.902;2023-06-10T02:12:01;100854.25;;;16.47;92.82
17525;BME280;40431;52.198;9.902;2023-06-10T02:14:29;100848.56;;;16.50;92.11
17525;BME280;40431;52.198;9.902;2023-06-10T02:16:55;100857.38;;;16.53;92.55
17525;BME280;40431;52.198;9.902;2023-06-10T02:19:22;100857.38;;;16.53;92.45
17525;BME280;40431;52.198;9.902;2023-06-10T02:21:50;100849.91;;;16.56;92.77
17525;BME280;40431;52.198;9.902;2023-06-10T02:24:16;100846.94;;;16.47;92.50
17525;BME280;40431;52.198;9.902;2023-06-10T02:26:43;100852.41;;;16.47;92.99
17525;BME280;40431;52.198;9.902;2023-06-10T02:29:10;100854.88;;;16.28;92.92
17525;BME280;40431;52.198;9.902;2023-06-10T02:31:38;100858.38;;;16.18;94.14
17525;BME280;40431;52.198;9.902;2023-06-10T02:34:04;100862.47;;;16.13;94.76
17525;BME280;40431;52.198;9.902;2023-06-10T02:36:31;100878.72;;;16.03;96.22
17525;BME280;40431;52.198;9.902;2023-06-10T02:38:57;100873.75;;;16.08;97.17
17525;BME280;40431;52.198;9.902;2023-06-10T02:41:23;100870.50;;;16.03;97.81
17525;BME280;40431;52.198;9.902;2023-06-10T02:43:50;100870.28;;;16.06;98.07
17525;BME280;40431;52.198;9.902;2023-06-10T02:46:16;100880.84;;;15.99;97.03
17525;BME280;40431;52.198;9.902;2023-06-10T02:48:45;100890.13;;;15.85;97.71
17525;BME280;40431;52.198;9.902;2023-06-10T02:51:12;100887.56;;;15.71;98.97
17525;BME280;40431;52.198;9.902;2023-06-10T02:53:38;100883.69;;;15.62;98.95
17525;BME280;40431;52.198;9.902;2023-06-10T02:56:05;100881.25;;;15.46;99.84
17525;BME280;40431;52.198;9.902;2023-06-10T02:58:31;100886.72;;;15.46;100.00
17525;BME280;40431;52.198;9.902;2023-06-10T03:00:58;100884.69;;;15.37;100.00
17525;BME280;40431;52.198;9.902;2023-06-10T03:03:24;100888.16;;;15.15;100.00
17525;BME280;40431;52.198;9.902;2023-06-10T03:05:52;100882.28;;;15.08;100.00
17525;BME280;40431;52.198;9.902;2023-06-10T03:08:18;100868.66;;;15.08;100.00
17525;BME280;40431;52.198;9.902;2023-06-10T03:10:44;100877.94;;;15.06;100.00
17525;BME280;40431;52.198;9.902;2023-06-10T03:13:11;100882.88;;;15.00;100.00
17525;BME280;40431;52.198;9.902;2023-06-10T03:15:38;100881.69;;;14.92;100.00
17525;BME280;40431;52.198;9.902;2023-06-10T03:18:06;100882.16;;;14.85;100.00
17525;BME280;40431;52.198;9.902;2023-06-10T03:20:33;100885.31;;;14.79;100.00
17525;BME280;40431;52.198;9.902;2023-06-10T03:23:04;100886.84;;;14.83;100.00
17525;BME280;40431;52.198;9.902;2023-06-10T03:25:31;100889.78;;;14.93;100.00
17525;BME280;40431;52.198;9.902;2023-06-10T03:27:58;100884.38;;;15.05;100.00
17525;BME280;40431;52.198;9.902;2023-06-10T03:30:24;100900.63;;;15.06;100.00
17525;BME280;40431;52.198;9.902;2023-06-10T03:32:50;100905.56;;;15.01;100.00
17525;BME280;40431;52.198;9.902;2023-06-10T03:35:17;100900.03;;;14.90;100.00
17525;BME280;40431;52.198;9.902;2023-06-10T03:37:43;100901.44;;;14.95;100.00
17525;BME280;40431;52.198;9.902;2023-06-10T03:40:11;100907.44;;;15.00;100.00
17525;BME280;40431;52.198;9.902;2023-06-10T03:42:37;100908.47;;;14.86;100.00
17525;BME280;40431;52.198;9.902;2023-06-10T03:45:05;100909.69;;;14.69;100.00
17525;BME280;40431;52.198;9.902;2023-06-10T03:47:33;100908.72;;;14.71;100.00
17525;BME280;40431;52.198;9.902;2023-06-10T03:50:01;100914.16;;;14.58;100.00
17525;BME280;40431;52.198;9.902;2023-06-10T03:52:28;100915.91;;;14.59;100.00
17525;BME280;40431;52.198;9.902;2023-06-10T03:54:54;100921.38;;;14.59;100.00
17525;BME280;40431;52.198;9.902;2023-06-10T03:57:22;100910.22;;;14.62;100.00
17525;BME280;40431;52.198;9.902;2023-06-10T03:59:48;100908.34;;;14.62;100.00
17525;BME280;40431;52.198;9.902;2023-06-10T04:02:15;100913.38;;;14.56;100.00
17525;BME280;40431;52.198;9.902;2023-06-10T04:04:41;100918.09;;;14.53;100.00
17525;BME280;40431;52.198;9.902;2023-06-10T04:07:08;100916.13;;;14.56;100.00
17525;BME280;40431;52.198;9.902;2023-06-10T04:09:34;100912.66;;;14.53;100.00
17525;BME280;40431;52.198;9.902;2023-06-10T04:12:02;100916.78;;;14.59;100.00
17525;BME280;40431;52.198;9.902;2023-06-10T04:14:32;100916.38;;;14.65;100.00
17525;BME280;40431;52.198;9.902;2023-06-10T04:17:01;100919.72;;;14.69;100.00
17525;BME280;40431;52.198;9.902;2023-06-10T04:19:27;100920.50;;;14.71;100.00
17525;BME280;40431;52.198;9.902;2023-06-10T04:21:56;100914.28;;;14.69;100.00
17525;BME280;40431;52.198;9.902;2023-06-10T04:24:22;100914.81;;;14.74;100.00
17525;BME280;40431;52.198;9.902;2023-06-10T04:26:49;100914.56;;;14.90;100.00
17525;BME280;40431;52.198;9.902;2023-06-10T04:29:15;100913.03;;;14.99;100.00
17525;BME280;40431;52.198;9.902;2023-06-10T04:31:43;100920.00;;;15.03;100.00
17525;BME280;40431;52.198;9.902;2023-06-10T04:34:11;100932.72;;;15.15;100.00
17525;BME280;40431;52.198;9.902;2023-06-10T04:36:37;100934.56;;;15.28;100.00
17525;BME280;40431;52.198;9.902;2023-06-10T04:39:04;100932.78;;;15.40;100.00
17525;BME280;40431;52.198;9.902;2023-06-10T04:41:30;100927.41;;;15.38;100.00
17525;BME280;40431;52.198;9.902;2023-06-10T04:43:57;100925.34;;;15.29;100.00
17525;BME280;40431;52.198;9.902;2023-06-10T04:46:25;100919.59;;;15.20;100.00
17525;BME280;40431;52.198;9.902;2023-06-10T04:48:53;100906.06;;;15.19;100.00
17525;BME280;40431;52.198;9.902;2023-06-10T04:51:20;100910.88;;;15.15;100.00
17525;BME280;40431;52.198;9.902;2023-06-10T04:53:46;100924.09;;;15.22;100.00
17525;BME280;40431;52.198;9.902;2023-06-10T04:56:12;100914.91;;;15.23;100.00
17525;BME280;40431;52.198;9.902;2023-06-10T04:58:40;100916.47;;;15.14;100.00
17525;BME280;40431;52.198;9.902;2023-06-10T05:01:06;100910.34;;;15.10;100.00
17525;BME280;40431;52.198;9.902;2023-06-10T05:03:33;100909.84;;;15.05;100.00
17525;BME280;40431;52.198;9.902;2023-06-10T05:06:00;100903.84;;;15.00;100.00
17525;BME280;40431;52.198;9.902;2023-06-10T05:08:27;100913.03;;;14.99;100.00
17525;BME280;40431;52.198;9.902;2023-06-10T05:10:53;100906.50;;;14.89;100.00
17525;BME280;40431;52.198;9.902;2023-06-10T05:13:20;100910.00;;;14.91;100.00
17525;BME280;40431;52.198;9.902;2023-06-10T05:15:46;100903.63;;;15.03;100.00
17525;BME280;40431;52.198;9.902;2023-06-10T05:18:13;100907.75;;;15.09;100.00
17525;BME280;40431;52.198;9.902;2023-06-10T05:20:40;100917.81;;;15.08;100.00
17525;BME280;40431;52.198;9.902;2023-06-10T05:23:07;100919.84;;;15.17;100.00
17525;BME280;40431;52.198;9.902;2023-06-10T05:25:34;100907.28;;;15.15;100.00
17525;BME280;40431;52.198;9.902;2023-06-10T05:28:01;100910.56;;;15.20;100.00
17525;BME280;40431;52.198;9.902;2023-06-10T05:30:27;100912.81;;;15.26;100.00
17525;BME280;40431;52.198;9.902;2023-06-10T05:32:54;100907.34;;;15.26;100.00
17525;BME280;40431;52.198;9.902;2023-06-10T05:35:21;100906.72;;;15.23;100.00
17525;BME280;40431;52.198;9.902;2023-06-10T05:37:48;100912.91;;;15.25;100.00
17525;BME280;40431;52.198;9.902;2023-06-10T05:40:15;100915.91;;;15.22;100.00
17525;BME280;40431;52.198;9.902;2023-06-10T05:42:42;100915.06;;;15.08;100.00
17525;BME280;40431;52.198;9.902;2023-06-10T05:45:09;100923.03;;;15.11;100.00
17525;BME280;40431;52.198;9.902;2023-06-10T05:47:36;100914.84;;;15.11;100.00
17525;BME280;40431;52.198;9.902;2023-06-10T05:50:03;100918.19;;;15.28;100.00
17525;BME280;40431;52.198;9.902;2023-06-10T05:52:32;100924.38;;;15.30;100.00
17525;BME280;40431;52.198;9.902;2023-06-10T05:54:58;100922.34;;;15.45;100.00
17525;BME280;40431;52.198;9.902;2023-06-10T05:57:26;100916.31;;;15.52;100.00
17525;BME280;40431;52.198;9.902;2023-06-10T05:59:53;100914.78;;;15.48;100.00
17525;BME280;40431;52.198;9.902;2023-06-10T06:02:19;100911.69;;;15.29;100.00
17525;BME280;40431;52.198;9.902;2023-06-10T06:04:45;100913.97;;;15.35;100.00
17525;BME280;40431;52.198;9.902;2023-06-10T06:07:12;100926.91;;;15.33;100.00
17525;BME280;40431;52.198;9.902;2023-06-10T06:09:38;100918.63;;;15.22;100.00
17525;BME280;40431;52.198;9.902;2023-06-10T06:12:06;100926.47;;;15.26;100.00
17525;BME280;40431;52.198;9.902;2023-06-10T06:14:37;100924.91;;;15.35;100.00
17525;BME280;40431;52.198;9.902;2023-06-10T06:17:04;100917.28;;;15.51;100.00
17525;BME280;40431;52.198;9.902;2023-06-10T06:19:30;100915.50;;;15.39;100.00
17525;BME280;40431;52.198;9.902;2023-06-10T06:21:57;100926.41;;;15.39;100.00
17525;BME280;40431;52.198;9.902;2023-06-10T06:24:23;100920.78;;;15.29;100.00
17525;BME280;40431;52.198;9.902;2023-06-10T06:26:50;100920.84;;;15.41;100.00
17525;BME280;40431;52.198;9.902;2023-06-10T06:29:16;100919.28;;;15.49;100.00
17525;BME280;40431;52.198;9.902;2023-06-10T06:31:44;100920.00;;;15.51;100.00
17525;BME280;40431;52.198;9.902;2023-06-10T06:34:10;100927.03;;;15.56;100.00
17525;BME280;40431;52.198;9.902;2023-06-10T06:36:37;100921.84;;;15.64;100.00
17525;BME280;40431;52.198;9.902;2023-06-10T06:39:03;100921.44;;;15.81;100.00
17525;BME280;40431;52.198;9.902;2023-06-10T06:41:30;100924.03;;;15.83;100.00
17525;BME280;40431;52.198;9.902;2023-06-10T06:43:56;100929.25;;;15.86;100.00
17525;BME280;40431;52.198;9.902;2023-06-10T06:46:23;100933.53;;;15.90;100.00
17525;BME280;40431;52.198;9.902;2023-06-10T06:48:50;100934.91;;;15.96;100.00
17525;BME280;40431;52.198;9.902;2023-06-10T06:51:17;100939.41;;;16.08;100.00
17525;BME280;40431;52.198;9.902;2023-06-10T06:53:43;100937.72;;;16.30;100.00
17525;BME280;40431;52.198;9.902;2023-06-10T06:56:11;100943.56;;;16.36;100.00
17525;BME280;40431;52.198;9.902;2023-06-10T06:58:37;100925.16;;;16.39;100.00
17525;BME280;40431;52.198;9.902;2023-06-10T07:01:04;100937.75;;;16.41;100.00
17525;BME280;40431;52.198;9.902;2023-06-10T07:03:30;100922.31;;;16.40;100.00
17525;BME280;40431;52.198;9.902;2023-06-10T07:05:58;100932.00;;;16.33;100.00
17525;BME280;40431;52.198;9.902;2023-06-10T07:08:24;100940.81;;;16.36;100.00
17525;BME280;40431;52.198;9.902;2023-06-10T07:10:51;100937.88;;;16.51;100.00
17525;BME280;40431;52.198;9.902;2023-06-10T07:13:17;100934.00;;;16.53;100.00
17525;BME280;40431;52.198;9.902;2023-06-10T07:15:44;100928.19;;;16.58;100.00
17525;BME280;40431;52.198;9.902;2023-06-10T07:18:10;100929.31;;;16.78;100.00
17525;BME280;40431;52.198;9.902;2023-06-10T07:20:36;100926.09;;;17.07;100.00
17525;BME280;40431;52.198;9.902;2023-06-10T07:23:04;100933.22;;;17.31;100.00
17525;BME280;40431;52.198;9.902;2023-06-10T07:25:30;100940.16;;;17.58;100.00
17525;BME280;40431;52.198;9.902;2023-06-10T07:27:57;100937.69;;;17.76;100.00
17525;BME280;40431;52.198;9.902;2023-06-10T07:30:23;100933.03;;;17.88;100.00
17525;BME280;40431;52.198;9.902;2023-06-10T07:32:50;100928.06;;;17.81;100.00
17525;BME280;40431;52.198;9.902;2023-06-10T07:35:17;100938.47;;;17.78;99.84
17525;BME280;40431;52.198;9.902;2023-06-10T07:37:44;100929.66;;;17.63;100.00
17525;BME280;40431;52.198;9.902;2023-06-10T07:40:12;100933.78;;;17.57;100.00
17525;BME280;40431;52.198;9.902;2023-06-10T07:42:38;100925.41;;;17.59;100.00
17525;BME280;40431;52.198;9.902;2023-06-10T07:45:05;100926.13;;;17.72;100.00
17525;BME280;40431;52.198;9.902;2023-06-10T07:47:33;100924.91;;;17.65;100.00
17525;BME280;40431;52.198;9.902;2023-06-10T07:50:00;100935.78;;;17.88;100.00
17525;BME280;40431;52.198;9.902;2023-06-10T07:52:26;100927.78;;;17.96;100.00
17525;BME280;40431;52.198;9.902;2023-06-10T07:54:53;100927.66;;;18.18;100.00
17525;BME280;40431;52.198;9.902;2023-06-10T07:57:21;100934.56;;;18.34;98.87
17525;BME280;40431;52.198;9.902;2023-06-10T07:59:47;100929.78;;;18.36;97.50
17525;BME280;40431;52.198;9.902;2023-06-10T08:02:14;100926.16;;;18.57;98.53
17525;BME280;40431;52.198;9.902;2023-06-10T08:04:40;100931.19;;;18.82;98.37
17525;BME280;40431;52.198;9.902;2023-06-10T08:07:07;100929.53;;;19.01;97.18
17525;BME280;40431;52.198;9.902;2023-06-10T08:09:33;100930.06;;;19.26;95.45
17525;BME280;40431;52.198;9.902;2023-06-10T08:12:00;100927.75;;;19.31;91.59
17525;BME280;40431;52.198;9.902;2023-06-10T08:14:27;100921.25;;;19.42;91.82
17525;BME280;40431;52.198;9.902;2023-06-10T08:16:54;100919.81;;;19.47;91.55
17525;BME280;40431;52.198;9.902;2023-06-10T08:19:20;100924.59;;;19.65;92.84
17525;BME280;40431;52.198;9.902;2023-06-10T08:21:46;100922.88;;;19.74;89.83
17525;BME280;40431;52.198;9.902;2023-06-10T08:24:13;100914.03;;;19.70;90.50
17525;BME280;40431;52.198;9.902;2023-06-10T08:26:41;100908.53;;;19.70;90.63
17525;BME280;40431;52.198;9.902;2023-06-10T08:29:07;100922.19;;;19.81;91.85
17525;BME280;40431;52.198;9.902;2023-06-10T08:31:35;100911.41;;;19.78;90.56
17525;BME280;40431;52.198;9.902;2023-06-10T08:34:01;100919.13;;;19.84;89.64
17525;BME280;40431;52.198;9.902;2023-06-10T08:36:28;100919.28;;;20.02;90.92
17525;BME280;40431;52.198;9.902;2023-06-10T08:38:54;100916.06;;;20.27;89.23
17525;BME280;40431;52.198;9.902;2023-06-10T08:41:22;100913.56;;;20.33;86.18
17525;BME280;40431;52.198;9.902;2023-06-10T08:43:59;100922.41;;;20.37;86.41
17525;BME280;40431;52.198;9.902;2023-06-10T08:46:31;100913.84;;;20.40;87.47
17525;BME280;40431;52.198;9.902;2023-06-10T08:49:00;100910.91;;;20.51;86.64
17525;BME280;40431;52.198;9.902;2023-06-10T08:51:29;100909.28;;;20.59;86.29
17525;BME280;40431;52.198;9.902;2023-06-10T08:54:01;100907.97;;;20.63;88.30
17525;BME280;40431;52.198;9.902;2023-06-10T08:56:30;100907.31;;;20.41;86.51
17525;BME280;40431;52.198;9.902;2023-06-10T08:59:01;100907.31;;;20.41;89.33
17525;BME280;40431;52.198;9.902;2023-06-10T09:01:28;100919.41;;;20.68;87.83
17525;BME280;40431;52.198;9.902;2023-06-10T09:03:56;100916.19;;;20.82;86.67
17525;BME280;40431;52.198;9.902;2023-06-10T09:06:25;100912.97;;;20.87;86.21
17525;BME280;40431;52.198;9.902;2023-06-10T09:08:51;100913.34;;;21.02;85.02
17525;BME280;40431;52.198;9.902;2023-06-10T09:11:18;100894.97;;;20.93;84.63
17525;BME280;40431;52.198;9.902;2023-06-10T09:13:44;100896.69;;;20.94;85.68
17525;BME280;40431;52.198;9.902;2023-06-10T09:16:11;100907.09;;;21.00;84.78
17525;BME280;40431;52.198;9.902;2023-06-10T09:18:39;100898.06;;;21.08;85.66
17525;BME280;40431;52.198;9.902;2023-06-10T09:21:05;100904.66;;;21.25;83.60
17525;BME280;40431;52.198;9.902;2023-06-10T09:23:33;100896.06;;;21.46;84.16
17525;BME280;40431;52.198;9.902;2023-06-10T09:25:59;100888.78;;;21.55;84.82
17525;BME280;40431;52.198;9.902;2023-06-10T09:28:26;100905.75;;;21.78;84.75
17525;BME280;40431;52.198;9.902;2023-06-10T09:31:02;100900.41;;;22.02;80.80
17525;BME280;40431;52.198;9.902;2023-06-10T09:33:29;100891.31;;;22.10;80.17
17525;BME280;40431;52.198;9.902;2023-06-10T09:35:55;100902.44;;;22.18;79.70
17525;BME280;40431;52.198;9.902;2023-06-10T09:38:29;100903.88;;;22.31;82.88
17525;BME280;40431;52.198;9.902;2023-06-10T09:40:58;100901.91;;;22.41;80.54
17525;BME280;40431;52.198;9.902;2023-06-10T09:43:39;100891.84;;;22.58;79.34
17525;BME280;40431;52.198;9.902;2023-06-10T09:46:06;100901.25;;;22.74;78.82
17525;BME280;40431;52.198;9.902;2023-06-10T09:48:34;100900.34;;;22.65;78.63
17525;BME280;40431;52.198;9.902;2023-06-10T09:51:01;100900.91;;;22.77;80.69
17525;BME280;40431;52.198;9.902;2023-06-10T09:53:33;100902.16;;;22.82;78.29
17525;BME280;40431;52.198;9.902;2023-06-10T09:56:01;100883.78;;;22.73;77.95
17525;BME280;40431;52.198;9.902;2023-06-10T09:58:34;100882.16;;;22.54;77.69
17525;BME280;40431;52.198;9.902;2023-06-10T10:01:04;100887.53;;;22.64;80.94
17525;BME280;40431;52.198;9.902;2023-06-10T10:03:31;100882.53;;;22.59;78.02
17525;BME280;40431;52.198;9.902;2023-06-10T10:05:58;100888.13;;;22.76;80.38
17525;BME280;40431;52.198;9.902;2023-06-10T10:08:25;100891.84;;;23.01;81.27
17525;BME280;40431;52.198;9.902;2023-06-10T10:10:52;100891.81;;;23.27;78.20
17525;BME280;40431;52.198;9.902;2023-06-10T10:13:20;100885.22;;;23.20;76.88
17525;BME280;40431;52.198;9.902;2023-06-10T10:15:47;100889.81;;;23.03;79.87
17525;BME280;40431;52.198;9.902;2023-06-10T10:18:14;100890.41;;;23.23;79.51
17525;BME280;40431;52.198;9.902;2023-06-10T10:20:47;100890.97;;;23.51;80.03
17525;BME280;40431;52.198;9.902;2023-06-10T10:23:21;100890.66;;;23.79;77.80
17525;BME280;40431;52.198;9.902;2023-06-10T10:25:51;100887.41;;;24.00;76.72
17525;BME280;40431;52.198;9.902;2023-06-10T10:28:21;100885.13;;;24.21;75.13
17525;BME280;40431;52.198;9.902;2023-06-10T10:30:54;100880.66;;;24.11;74.23
17525;BME280;40431;52.198;9.902;2023-06-10T10:33:36;100879.81;;;24.03;74.21
17525;BME280;40431;52.198;9.902;2023-06-10T10:36:06;100875.97;;;23.79;75.50
17525;BME280;40431;52.198;9.902;2023-06-10T10:38:34;100877.19;;;23.76;76.82
17525;BME280;40431;52.198;9.902;2023-06-10T10:41:02;100874.75;;;23.81;77.53
17525;BME280;40431;52.198;9.902;2023-06-10T10:43:31;100879.78;;;23.94;75.42
17525;BME280;40431;52.198;9.902;2023-06-10T10:45:59;100878.06;;;24.10;73.99
17525;BME280;40431;52.198;9.902;2023-06-10T10:48:26;100867.47;;;24.05;72.59
17525;BME280;40431;52.198;9.902;2023-06-10T10:50:56;100871.97;;;24.14;73.25
17525;BME280;40431;52.198;9.902;2023-06-10T10:53:23;100864.69;;;24.30;76.11
17525;BME280;40431;52.198;9.902;2023-06-10T10:55:58;100858.41;;;24.44;73.47
17525;BME280;40431;52.198;9.902;2023-06-10T10:58:25;100859.75;;;24.65;73.43
17525;BME280;40431;52.198;9.902;2023-06-10T11:00:52;100856.47;;;24.61;69.79
17525;BME280;40431;52.198;9.902;2023-06-10T11:03:19;100868.34;;;24.87;70.31
17525;BME280;40431;52.198;9.902;2023-06-10T11:05:47;100866.72;;;25.00;70.34
17525;BME280;40431;52.198;9.902;2023-06-10T11:08:14;100863.69;;;25.18;69.59
17525;BME280;40431;52.198;9.902;2023-06-10T11:10:41;100859.78;;;25.36;69.68
17525;BME280;40431;52.198;9.902;2023-06-10T11:13:19;100857.72;;;25.38;68.99
17525;BME280;40431;52.198;9.902;2023-06-10T11:15:47;100856.44;;;25.41;66.85
17525;BME280;40431;52.198;9.902;2023-06-10T11:18:22;100852.50;;;25.35;68.03
17525;BME280;40431;52.198;9.902;2023-06-10T11:21:05;100834.84;;;25.28;67.00
17525;BME280;40431;52.198;9.902;2023-06-10T11:23:41;100840.50;;;25.43;68.70
17525;BME280;40431;52.198;9.902;2023-06-10T11:26:13;100828.59;;;25.57;65.95
17525;BME280;40431;52.198;9.902;2023-06-10T11:28:40;100836.47;;;25.68;64.86
17525;BME280;40431;52.198;9.902;2023-06-10T11:31:08;100832.53;;;25.63;64.08
17525;BME280;40431;52.198;9.902;2023-06-10T11:33:38;100834.69;;;25.53;64.41
17525;BME280;40431;52.198;9.902;2023-06-10T11:36:06;100827.97;;;25.70;66.48
17525;BME280;40431;52.198;9.902;2023-06-10T11:38:33;100826.47;;;25.97;66.44
17525;BME280;40431;52.198;9.902;2023-06-10T11:41:01;100819.28;;;25.88;62.24
17525;BME280;40431;52.198;9.902;2023-06-10T11:43:27;100815.94;;;25.93;61.95
17525;BME280;40431;52.198;9.902;2023-06-10T11:45:54;100816.56;;;26.03;62.96
17525;BME280;40431;52.198;9.902;2023-06-10T11:48:22;100818.50;;;26.17;62.68
17525;BME280;40431;52.198;9.902;2023-06-10T11:50:49;100814.13;;;26.38;63.57
17525;BME280;40431;52.198;9.902;2023-06-10T11:53:18;100809.41;;;26.39;60.13
17525;BME280;40431;52.198;9.902;2023-06-10T11:55:46;100806.16;;;26.50;60.43
17525;BME280;40431;52.198;9.902;2023-06-10T11:58:13;100809.03;;;26.57;61.39
17525;BME280;40431;52.198;9.902;2023-06-10T12:00:44;100802.97;;;26.53;60.52
17525;BME280;40431;52.198;9.902;2023-06-10T12:03:11;100819.56;;;26.61;61.53
17525;BME280;40431;52.198;9.902;2023-06-10T12:05:37;100803.38;;;26.50;60.04
17525;BME280;40431;52.198;9.902;2023-06-10T12:08:11;100800.50;;;26.43;59.70
17525;BME280;40431;52.198;9.902;2023-06-10T12:10:41;100808.44;;;26.61;62.09
17525;BME280;40431;52.198;9.902;2023-06-10T12:13:08;100808.63;;;26.75;61.33
17525;BME280;40431;52.198;9.902;2023-06-10T12:15:35;100815.38;;;26.80;60.33
17525;BME280;40431;52.198;9.902;2023-06-10T12:18:02;100799.03;;;26.77;58.67
17525;BME280;40431;52.198;9.902;2023-06-10T12:20:30;100802.78;;;26.85;58.67
17525;BME280;40431;52.198;9.902;2023-06-10T12:22:57;100800.59;;;27.02;59.54
17525;BME280;40431;52.198;9.902;2023-06-10T12:25:26;100810.84;;;27.16;59.38
17525;BME280;40431;52.198;9.902;2023-06-10T12:27:54;100797.53;;;27.33;58.03
17525;BME280;40431;52.198;9.902;2023-06-10T12:30:23;100797.59;;;27.18;57.06
17525;BME280;40431;52.198;9.902;2023-06-10T12:32:50;100794.63;;;27.20;58.85
17525;BME280;40431;52.198;9.902;2023-06-10T12:35:18;100800.72;;;27.30;59.07
17525;BME280;40431;52.198;9.902;2023-06-10T12:37:54;100787.66;;;27.30;56.96
17525;BME280;40431;52.198;9.902;2023-06-10T12:40:27;100791.31;;;27.31;57.94
17525;BME280;40431;52.198;9.902;2023-06-10T12:42:54;100791.75;;;27.34;57.33
17525;BME280;40431;52.198;9.902;2023-06-10T12:45:26;100787.66;;;27.52;57.29
17525;BME280;40431;52.198;9.902;2023-06-10T12:48:04;100782.34;;;27.79;55.87